Time;durP1;ratioP1;P1;durP2;ratioP2;P2;SDS_P1;SDS_P2;PMS_P1;PMS_P2;Temp;Humidity;BMP_temperature;BMP_pressure;BME280_temperature;BME280_humidity;BME280_pressure;Samples;Min_cycle;Max_cycle;Signal;HPM_P1;HPM_P2
2023/07/03 00:00:20;;;;;;;;;;;;;;;22.90;42.95;100845.63;5067507;28;19913;-73
2023/07/03 00:02:46;;;;;;;;;;;;;;;22.91;42.87;100846.47;5058573;28;19917;-73
2023/07/03 00:05:12;;;;;;;;;;;;;;;22.90;43.05;100842.94;5064127;28;19912;-73
2023/07/03 00:07:37;;;;;;;;;;;;;;;22.90;42.95;100837.50;5066596;28;19926;-73
2023/07/03 00:10:04;;;;;;;;;;;;;;;22.90;42.98;100842.09;5053792;28;19974;-72
2023/07/03 00:12:29;;;;;;;;;;;;;;;22.90;43.06;100839.38;5056867;28;19963;-73
2023/07/03 00:14:54;;;;;;;;;;;;;;;22.89;42.95;100841.19;5058319;28;19921;-72
2023/07/03 00:17:20;;;;;;;;;;;;;;;22.88;42.78;100834.09;5060846;28;20062;-72
2023/07/03 00:19:45;;;;;;;;;;;;;;;22.88;42.89;100836.81;5066551;28;20112;-73
2023/07/03 00:22:10;;;;;;;;;;;;;;;22.89;42.82;100829.50;5062535;28;19919;-72
2023/07/03 00:24:35;;;;;;;;;;;;;;;22.88;42.94;100827.84;5066746;28;19954;-73
2023/07/03 00:27:00;;;;;;;;;;;;;;;22.88;43.01;100819.72;5061961;28;19955;-73
2023/07/03 00:29:28;;;;;;;;;;;;;;;22.88;42.90;100819.72;5062486;28;19921;-73
2023/07/03 00:31:54;;;;;;;;;;;;;;;22.87;42.95;100816.16;5060735;28;20012;-72
2023/07/03 00:34:19;;;;;;;;;;;;;;;22.87;42.92;100815.34;5068810;28;19913;-72
2023/07/03 00:36:44;;;;;;;;;;;;;;;22.48;43.05;100750.81;5052582;28;19921;-71
2023/07/03 00:39:09;;;;;;;;;;;;;;;22.87;42.91;100818.88;5067729;28;19930;-72
2023/07/03 00:41:35;;;;;;;;;;;;;;;22.86;42.96;100817.22;5061288;28;19921;-73
2023/07/03 00:44:00;;;;;;;;;;;;;;;22.87;42.73;100812.63;5064720;28;19912;-73
2023/07/03 00:46:25;;;;;;;;;;;;;;;22.86;43.08;100819.94;5068521;28;19917;-73
2023/07/03 00:48:50;;;;;;;;;;;;;;;22.86;42.94;100821.81;5056183;28;19945;-72
2023/07/03 00:51:16;;;;;;;;;;;;;;;22.85;42.82;100810.13;5065012;28;20012;-73
2023/07/03 00:53:41;;;;;;;;;;;;;;;22.86;42.68;100813.66;5060440;28;20007;-73
2023/07/03 00:56:06;;;;;;;;;;;;;;;22.85;42.67;100801.13;5045552;28;19917;-73
2023/07/03 00:58:31;;;;;;;;;;;;;;;22.84;42.84;100797.56;5062216;28;20277;-73
2023/07/03 01:00:58;;;;;;;;;;;;;;;22.85;42.91;100790.28;5049022;28;19982;-73
2023/07/03 01:03:37;;;;;;;;;;;;;;;22.84;43.10;100796.75;5058068;28;19997;-73
2023/07/03 01:06:03;;;;;;;;;;;;;;;22.83;43.05;100801.34;5050740;28;19922;-72
2023/07/03 01:08:28;;;;;;;;;;;;;;;22.84;42.78;100804.88;5053375;28;19984;-73
2023/07/03 01:10:54;;;;;;;;;;;;;;;22.82;43.04;100805.09;5032170;28;19912;-74
2023/07/03 01:13:19;;;;;;;;;;;;;;;22.83;42.96;100814.88;5053926;28;19920;-73
2023/07/03 01:15:44;;;;;;;;;;;;;;;22.82;43.05;100813.22;5038065;28;19921;-73
2023/07/03 01:18:09;;;;;;;;;;;;;;;22.82;42.76;100812.38;5063902;28;19921;-73
2023/07/03 01:20:45;;;;;;;;;;;;;;;22.81;43.07;100803.41;5063109;28;19916;-73
2023/07/03 01:23:17;;;;;;;;;;;;;;;22.81;42.82;100807.97;5045685;28;19913;-73
2023/07/03 01:25:42;;;;;;;;;;;;;;;22.82;43.09;100806.97;5060899;28;19940;-73
2023/07/03 01:28:08;;;;;;;;;;;;;;;22.80;42.76;100801.72;5051305;28;19912;-72
2023/07/03 01:30:34;;;;;;;;;;;;;;;22.80;42.91;100796.28;5060725;28;20508;-72
2023/07/03 01:32:59;;;;;;;;;;;;;;;22.80;42.98;100798.16;5052557;28;20010;-72
2023/07/03 01:35:24;;;;;;;;;;;;;;;22.79;42.84;100791.91;5068304;28;19917;-72
2023/07/03 01:37:50;;;;;;;;;;;;;;;22.79;42.77;100788.38;5054657;28;19914;-73
2023/07/03 01:40:18;;;;;;;;;;;;;;;22.79;42.83;100781.06;5059645;28;20494;-73
2023/07/03 01:42:43;;;;;;;;;;;;;;;22.79;42.79;100782.94;5044064;28;19917;-72
2023/07/03 01:45:09;;;;;;;;;;;;;;;22.79;42.79;100774.81;5049298;28;19920;-72
2023/07/03 01:47:34;;;;;;;;;;;;;;;22.78;43.12;100778.56;5068800;28;19914;-73
2023/07/03 01:49:59;;;;;;;;;;;;;;;22.77;42.94;100783.16;5048995;28;19913;-75
2023/07/03 01:52:37;;;;;;;;;;;;;;;22.77;42.71;100779.59;5048094;28;20476;-73
2023/07/03 01:55:06;;;;;;;;;;;;;;;22.76;43.08;100776.03;5040166;28;19928;-72
2023/07/03 01:57:46;;;;;;;;;;;;;;;22.76;42.99;100776.03;5062955;28;19917;-72
2023/07/03 02:00:14;;;;;;;;;;;;;;;22.76;43.13;100775.22;5066026;28;19966;-72
2023/07/03 02:02:44;;;;;;;;;;;;;;;22.76;43.00;100777.91;5051997;28;19922;-73
2023/07/03 02:05:10;;;;;;;;;;;;;;;22.76;43.01;100769.78;5041475;28;19916;-72
2023/07/03 02:07:35;;;;;;;;;;;;;;;22.75;43.12;100776.25;5075976;28;19960;-73
2023/07/03 02:10:02;;;;;;;;;;;;;;;22.75;43.08;100778.97;5042665;28;19916;-73
2023/07/03 02:12:28;;;;;;;;;;;;;;;22.74;43.21;100770.00;5038225;28;20006;-72
2023/07/03 02:14:55;;;;;;;;;;;;;;;22.74;43.08;100766.44;5067488;28;20545;-73
2023/07/03 02:17:21;;;;;;;;;;;;;;;22.74;43.22;100764.56;5047353;28;19935;-72
2023/07/03 02:19:46;;;;;;;;;;;;;;;22.73;42.79;100765.63;5064421;28;19917;-72
2023/07/03 02:22:11;;;;;;;;;;;;;;;22.73;42.96;100775.63;5063326;28;19912;-72
2023/07/03 02:24:36;;;;;;;;;;;;;;;22.73;42.97;100770.19;5064500;28;19928;-73
2023/07/03 02:27:02;;;;;;;;;;;;;;;22.73;43.14;100775.63;5048291;28;19983;-73
2023/07/03 02:29:27;;;;;;;;;;;;;;;22.72;42.74;100780.19;5072390;28;19952;-73
2023/07/03 02:31:52;;;;;;;;;;;;;;;22.71;43.18;100771.22;5055268;28;19924;-73
2023/07/03 02:34:17;;;;;;;;;;;;;;;22.70;42.97;100782.25;5074118;28;20385;-73
2023/07/03 02:36:46;;;;;;;;;;;;;;;22.70;43.06;100783.09;5063887;28;19928;-73
2023/07/03 02:39:11;;;;;;;;;;;;;;;22.70;43.22;100772.25;5062134;28;19976;-72
2023/07/03 02:41:37;;;;;;;;;;;;;;;22.69;43.22;100784.13;5057001;28;19916;-73
2023/07/03 02:44:02;;;;;;;;;;;;;;;22.68;43.20;100784.31;5052733;28;20408;-73
2023/07/03 02:46:27;;;;;;;;;;;;;;;22.69;42.93;100784.13;5066222;28;19953;-72
2023/07/03 02:48:52;;;;;;;;;;;;;;;22.68;43.06;100770.75;5047505;28;19921;-73
2023/07/03 02:51:18;;;;;;;;;;;;;;;22.68;42.89;100784.31;5066562;28;19920;-73
2023/07/03 02:53:43;;;;;;;;;;;;;;;22.67;42.98;100783.47;5060333;28;19917;-73
2023/07/03 02:56:08;;;;;;;;;;;;;;;22.67;43.17;100783.47;5071377;28;19939;-72
2023/07/03 02:58:34;;;;;;;;;;;;;;;22.67;43.08;100779.94;5059345;28;19913;-73
2023/07/03 03:01:00;;;;;;;;;;;;;;;22.66;43.21;100778.28;5071388;28;20014;-73
2023/07/03 03:03:26;;;;;;;;;;;;;;;22.65;43.20;100777.44;5049242;28;19913;-73
2023/07/03 03:05:51;;;;;;;;;;;;;;;22.65;43.24;100773.88;5057846;28;19924;-73
2023/07/03 03:08:16;;;;;;;;;;;;;;;22.65;43.20;100772.00;5073235;28;19921;-73
2023/07/03 03:10:42;;;;;;;;;;;;;;;22.64;43.32;100770.34;5059949;28;19944;-73
2023/07/03 03:13:07;;;;;;;;;;;;;;;22.64;42.91;100769.47;5066828;28;19985;-73
2023/07/03 03:15:34;;;;;;;;;;;;;;;22.64;43.01;100770.34;5066463;28;19917;-73
2023/07/03 03:17:59;;;;;;;;;;;;;;;22.64;43.19;100764.06;5065053;28;19931;-73
2023/07/03 03:20:24;;;;;;;;;;;;;;;22.63;43.20;100762.38;5062789;28;19972;-73
2023/07/03 03:22:49;;;;;;;;;;;;;;;22.64;42.97;100756.78;5069925;28;20003;-74
2023/07/03 03:25:15;;;;;;;;;;;;;;;22.62;42.87;100752.59;5062532;28;19913;-74
2023/07/03 03:27:40;;;;;;;;;;;;;;;22.62;43.07;100760.72;5036630;28;19920;-73
2023/07/03 03:30:05;;;;;;;;;;;;;;;22.61;43.07;100769.91;5069842;28;19913;-73
2023/07/03 03:32:31;;;;;;;;;;;;;;;22.61;43.28;100767.19;5053958;28;19940;-73
2023/07/03 03:34:56;;;;;;;;;;;;;;;22.60;43.07;100760.94;5073455;28;19927;-73
2023/07/03 03:37:21;;;;;;;;;;;;;;;22.60;43.21;100758.22;5062418;28;19980;-73
2023/07/03 03:39:46;;;;;;;;;;;;;;;22.59;43.05;100763.81;5061978;28;19993;-73
2023/07/03 03:42:11;;;;;;;;;;;;;;;22.59;42.86;100767.38;5069033;28;19963;-73
2023/07/03 03:44:37;;;;;;;;;;;;;;;22.59;43.26;100774.66;5065624;28;19919;-73
2023/07/03 03:47:02;;;;;;;;;;;;;;;22.58;43.17;100779.25;5057223;28;19924;-73
2023/07/03 03:49:28;;;;;;;;;;;;;;;22.58;43.29;100781.13;5045442;28;19952;-73
2023/07/03 03:51:53;;;;;;;;;;;;;;;22.51;43.00;100767.50;5065211;28;19913;-73
2023/07/03 03:54:18;;;;;;;;;;;;;;;22.57;43.30;100776.75;5057328;28;19967;-73
2023/07/03 03:56:44;;;;;;;;;;;;;;;22.57;43.29;100774.03;5054840;28;20027;-73
2023/07/03 03:59:09;;;;;;;;;;;;;;;22.56;43.21;100775.91;5060351;28;19953;-73
2023/07/03 04:01:34;;;;;;;;;;;;;;;22.55;43.13;100776.09;5066612;28;20560;-73
2023/07/03 04:03:59;;;;;;;;;;;;;;;22.55;43.21;100776.09;5065571;28;19921;-73
2023/07/03 04:06:26;;;;;;;;;;;;;;;22.54;43.12;100772.53;5048545;28;20392;-73
2023/07/03 04:08:51;;;;;;;;;;;;;;;22.54;43.14;100785.25;5051953;28;19988;-72
2023/07/03 04:11:16;;;;;;;;;;;;;;;22.54;43.20;100777.97;5060969;28;19938;-73
2023/07/03 04:13:42;;;;;;;;;;;;;;;22.55;43.06;100785.03;5061828;28;19913;-72
2023/07/03 04:16:07;;;;;;;;;;;;;;;22.55;43.20;100795.06;5048060;28;19920;-72
2023/07/03 04:18:32;;;;;;;;;;;;;;;22.55;43.12;100790.47;5068015;28;19925;-72
2023/07/03 04:20:57;;;;;;;;;;;;;;;22.55;43.38;100787.75;5058585;28;19913;-71
2023/07/03 04:23:23;;;;;;;;;;;;;;;22.56;43.48;100794.03;5070344;28;19916;-73
2023/07/03 04:25:49;;;;;;;;;;;;;;;22.56;43.27;100794.88;5060417;28;19913;-73
2023/07/03 04:28:15;;;;;;;;;;;;;;;22.58;43.33;100791.97;5060697;28;19983;-73
2023/07/03 04:30:41;;;;;;;;;;;;;;;22.57;43.62;100793.00;5062707;28;19942;-69
2023/07/03 04:33:06;;;;;;;;;;;;;;;22.58;43.54;100789.25;5056957;28;19980;-72
2023/07/03 04:35:31;;;;;;;;;;;;;;;22.57;44.03;100791.13;5068579;28;19917;-72
2023/07/03 04:37:56;;;;;;;;;;;;;;;22.58;43.89;100800.91;5042847;28;20290;-72
2023/07/03 04:40:22;;;;;;;;;;;;;;;22.58;44.01;100797.38;5063356;28;20362;-72
2023/07/03 04:42:48;;;;;;;;;;;;;;;22.59;44.02;100793.63;5061713;28;19916;-72
2023/07/03 04:45:15;;;;;;;;;;;;;;;22.58;44.23;100789.25;5065130;28;19913;-73
2023/07/03 04:47:40;;;;;;;;;;;;;;;22.58;44.09;100791.97;5054756;28;19917;-71
2023/07/03 04:50:10;;;;;;;;;;;;;;;22.59;44.29;100801.75;5068336;28;19912;-73
2023/07/03 04:52:38;;;;;;;;;;;;;;;22.59;44.00;100805.31;5059998;28;19916;-73
2023/07/03 04:55:03;;;;;;;;;;;;;;;22.58;44.30;100806.34;5056777;28;19956;-73
2023/07/03 04:57:29;;;;;;;;;;;;;;;22.59;44.05;100805.31;5070216;28;19913;-72
2023/07/03 04:59:55;;;;;;;;;;;;;;;22.59;44.29;100804.47;5038006;28;19913;-74
2023/07/03 05:02:21;;;;;;;;;;;;;;;22.59;44.47;100809.88;5068626;28;19913;-71
2023/07/03 05:04:46;;;;;;;;;;;;;;;22.58;44.51;100810.94;5065877;28;19913;-71
2023/07/03 05:07:11;;;;;;;;;;;;;;;22.59;44.12;100812.59;5064428;28;19992;-70
2023/07/03 05:09:36;;;;;;;;;;;;;;;22.58;44.32;100822.59;5067715;28;19921;-72
2023/07/03 05:12:02;;;;;;;;;;;;;;;22.58;44.24;100808.22;5068761;28;19920;-71
2023/07/03 05:14:27;;;;;;;;;;;;;;;22.58;44.32;100811.75;5063880;28;19963;-73
2023/07/03 05:16:52;;;;;;;;;;;;;;;22.58;44.17;100817.19;5070872;28;20026;-71
2023/07/03 05:19:17;;;;;;;;;;;;;;;22.59;44.52;100818.00;5071016;28;19925;-72
2023/07/03 05:21:42;;;;;;;;;;;;;;;22.58;44.47;100819.88;5056750;28;19913;-71
2023/07/03 05:24:07;;;;;;;;;;;;;;;22.59;44.71;100823.44;5077261;28;19913;-71
2023/07/03 05:26:33;;;;;;;;;;;;;;;22.59;44.79;100828.84;5063560;28;19917;-71
2023/07/03 05:28:58;;;;;;;;;;;;;;;22.59;44.81;100820.72;5064782;28;19963;-73
2023/07/03 05:31:23;;;;;;;;;;;;;;;22.58;44.77;100824.47;5071582;28;19916;-72
2023/07/03 05:33:49;;;;;;;;;;;;;;;22.58;44.65;100829.91;5062496;28;19924;-73
2023/07/03 05:36:15;;;;;;;;;;;;;;;22.58;44.88;100830.72;5070527;28;19967;-71
2023/07/03 05:38:40;;;;;;;;;;;;;;;22.58;44.96;100825.31;5065783;28;19963;-73
2023/07/03 05:41:05;;;;;;;;;;;;;;;22.59;45.06;100842.41;5066733;28;19928;-72
2023/07/03 05:43:30;;;;;;;;;;;;;;;22.59;45.01;100839.69;5065706;28;19966;-72
2023/07/03 05:45:55;;;;;;;;;;;;;;;22.59;45.02;100842.41;5071251;28;19978;-73
2023/07/03 05:48:21;;;;;;;;;;;;;;;22.59;44.67;100842.41;5058063;28;19916;-72
2023/07/03 05:50:46;;;;;;;;;;;;;;;22.59;44.88;100843.25;5070326;28;19920;-71
2023/07/03 05:53:11;;;;;;;;;;;;;;;22.59;44.56;100836.97;5066553;28;19913;-72
2023/07/03 05:55:36;;;;;;;;;;;;;;;22.59;44.63;100836.97;5060514;28;19960;-75
2023/07/03 05:58:02;;;;;;;;;;;;;;;22.59;44.63;100837.81;5073320;28;20433;-73
2023/07/03 06:00:30;;;;;;;;;;;;;;;22.59;44.85;100836.97;5059517;28;19917;-73
2023/07/03 06:02:55;;;;;;;;;;;;;;;22.59;44.81;100839.69;5064574;28;19912;-73
2023/07/03 06:05:21;;;;;;;;;;;;;;;22.59;44.88;100845.94;5065096;28;19923;-74
2023/07/03 06:07:46;;;;;;;;;;;;;;;22.58;44.92;100838.84;5066601;28;19921;-72
2023/07/03 06:10:12;;;;;;;;;;;;;;;22.58;44.79;100833.44;5049885;28;19923;-74
2023/07/03 06:12:38;;;;;;;;;;;;;;;22.59;44.42;100843.25;5069583;28;19913;-73
2023/07/03 06:15:03;;;;;;;;;;;;;;;22.59;44.60;100837.81;5064405;28;19924;-73
2023/07/03 06:17:29;;;;;;;;;;;;;;;22.52;44.67;100842.38;5065179;28;19932;-73
2023/07/03 06:19:54;;;;;;;;;;;;;;;22.45;44.86;100841.44;5069104;28;19984;-73
2023/07/03 06:22:19;;;;;;;;;;;;;;;22.37;45.07;100845.13;5054079;28;19913;-73
2023/07/03 06:24:45;;;;;;;;;;;;;;;22.28;45.57;100843.56;5076942;28;19925;-74
2023/07/03 06:27:10;;;;;;;;;;;;;;;22.17;45.75;100841.34;5052302;28;19977;-73
2023/07/03 06:29:35;;;;;;;;;;;;;;;22.11;45.50;100842.94;5044694;28;20409;-73
2023/07/03 06:32:01;;;;;;;;;;;;;;;22.10;45.42;100845.84;5069651;28;20559;-73
2023/07/03 06:34:26;;;;;;;;;;;;;;;22.08;44.72;100851.44;5064319;28;19920;-72
2023/07/03 06:36:51;;;;;;;;;;;;;;;22.09;44.26;100845.00;5064056;28;19920;-75
2023/07/03 06:39:17;;;;;;;;;;;;;;;22.06;44.68;100849.97;5065661;28;19921;-71
2023/07/03 06:41:42;;;;;;;;;;;;;;;22.08;44.41;100848.72;5067042;28;19920;-74
2023/07/03 06:44:11;;;;;;;;;;;;;;;22.07;44.28;100847.06;5038713;28;19917;-73
2023/07/03 06:46:36;;;;;;;;;;;;;;;22.08;43.90;100851.44;5072933;28;19912;-73
2023/07/03 06:49:01;;;;;;;;;;;;;;;22.08;43.98;100848.72;5056783;28;20019;-72
2023/07/03 06:51:26;;;;;;;;;;;;;;;22.09;43.54;100855.84;5073376;28;20389;-71
2023/07/03 06:53:52;;;;;;;;;;;;;;;22.08;42.74;100854.16;5064539;28;19917;-71
2023/07/03 06:56:17;;;;;;;;;;;;;;;22.02;42.30;100849.50;5058345;28;19925;-71
2023/07/03 06:58:42;;;;;;;;;;;;;;;21.99;42.42;100854.47;5070352;28;20000;-72
2023/07/03 07:01:08;;;;;;;;;;;;;;;22.02;42.59;100857.63;5060392;28;19921;-73
2023/07/03 07:03:33;;;;;;;;;;;;;;;22.04;42.32;100860.97;5047010;28;19917;-73
2023/07/03 07:05:59;;;;;;;;;;;;;;;22.11;42.61;100864.59;5066857;28;19917;-73
2023/07/03 07:08:24;;;;;;;;;;;;;;;22.17;42.89;100865.72;5050275;28;20015;-73
2023/07/03 07:10:49;;;;;;;;;;;;;;;22.23;43.27;100870.41;5059078;28;19920;-72
2023/07/03 07:13:14;;;;;;;;;;;;;;;22.23;42.63;100873.09;5070273;28;19913;-72
2023/07/03 07:15:40;;;;;;;;;;;;;;;22.14;42.00;100871.56;5062975;28;20301;-72
2023/07/03 07:18:06;;;;;;;;;;;;;;;22.09;42.34;100877.50;5062505;28;19924;-69
2023/07/03 07:20:38;;;;;;;;;;;;;;;22.04;41.94;100884.50;5061829;28;19923;-72
2023/07/03 07:23:03;;;;;;;;;;;;;;;;;;5055212;28;19971;-73
2023/07/03 07:25:28;;;;;;;;;;;;;;;22.04;42.18;100888.03;5071961;28;19912;-73
2023/07/03 07:27:53;;;;;;;;;;;;;;;22.09;42.22;100880.22;5059676;28;19931;-72
2023/07/03 07:30:18;;;;;;;;;;;;;;;22.16;42.42;100874.88;5063746;28;19921;-73
2023/07/03 07:32:46;;;;;;;;;;;;;;;22.21;42.72;100883.28;5066377;28;19913;-76
2023/07/03 07:35:11;;;;;;;;;;;;;;;22.25;42.96;100887.28;5065746;28;19972;-74
2023/07/03 07:37:36;;;;;;;;;;;;;;;22.28;43.12;100878.78;5060264;28;20370;-74
2023/07/03 07:40:02;;;;;;;;;;;;;;;22.33;43.05;100880.91;5049877;28;20763;-74
2023/07/03 07:42:29;;;;;;;;;;;;;;;22.35;43.29;100879.69;5061842;28;19917;-72
2023/07/03 07:44:54;;;;;;;;;;;;;;;22.40;42.94;100892.66;5058860;28;19917;-74
2023/07/03 07:47:19;;;;;;;;;;;;;;;22.42;43.30;100893.31;5068103;28;19921;-72
2023/07/03 07:49:44;;;;;;;;;;;;;;;22.43;43.04;100879.59;5038299;28;19923;-74
2023/07/03 07:52:09;;;;;;;;;;;;;;;22.45;43.31;100879.38;5068806;28;19917;-74
2023/07/03 07:54:35;;;;;;;;;;;;;;;22.45;43.45;100882.91;5063112;28;20004;-72
2023/07/03 07:57:00;;;;;;;;;;;;;;;22.48;43.38;100883.59;5058952;28;19917;-72
2023/07/03 07:59:25;;;;;;;;;;;;;;;22.49;43.51;100891.50;5067933;28;19913;-72
2023/07/03 08:01:52;;;;;;;;;;;;;;;22.50;43.08;100884.22;5063248;28;19975;-73
2023/07/03 08:04:17;;;;;;;;;;;;;;;22.50;43.07;100884.22;5042963;28;19990;-72
2023/07/03 08:06:42;;;;;;;;;;;;;;;22.52;43.00;100884.88;5065999;28;20373;-73
2023/07/03 08:09:08;;;;;;;;;;;;;;;22.52;43.24;100879.47;5066489;28;19921;-72
2023/07/03 08:11:33;;;;;;;;;;;;;;;22.54;43.05;100889.06;5048772;28;19927;-73
2023/07/03 08:13:58;;;;;;;;;;;;;;;22.54;43.26;100886.34;5072492;28;19923;-72
2023/07/03 08:16:23;;;;;;;;;;;;;;;22.55;43.23;100889.88;5056651;28;19932;-72
2023/07/03 08:18:48;;;;;;;;;;;;;;;22.55;43.14;100887.19;5062177;28;19924;-72
2023/07/03 08:21:14;;;;;;;;;;;;;;;22.54;43.16;100891.75;5064450;28;19920;-72
2023/07/03 08:23:39;;;;;;;;;;;;;;;22.55;42.93;100898.84;5057869;28;19916;-73
2023/07/03 08:26:04;;;;;;;;;;;;;;;22.55;43.38;100900.72;5066505;28;19921;-72
2023/07/03 08:28:29;;;;;;;;;;;;;;;22.55;43.29;100906.16;5060081;28;20388;-72
2023/07/03 08:30:57;;;;;;;;;;;;;;;22.54;43.14;100913.44;5062106;28;19956;-73
2023/07/03 08:33:23;;;;;;;;;;;;;;;22.54;43.32;100905.31;5047076;28;19943;-73
2023/07/03 08:35:48;;;;;;;;;;;;;;;22.54;43.06;100904.47;5064402;28;19950;-73
2023/07/03 08:38:13;;;;;;;;;;;;;;;22.55;43.35;100914.28;5053368;28;19920;-73
2023/07/03 08:40:39;;;;;;;;;;;;;;;22.55;43.20;100906.16;5050125;28;19917;-73
2023/07/03 08:43:05;;;;;;;;;;;;;;;22.55;43.12;100903.44;5062620;28;20446;-73
2023/07/03 08:45:30;;;;;;;;;;;;;;;22.55;43.26;100898.84;5044250;28;19927;-74
2023/07/03 08:47:55;;;;;;;;;;;;;;;22.55;43.55;100906.97;5069890;28;19948;-73
2023/07/03 08:50:21;;;;;;;;;;;;;;;22.50;41.86;100903.19;5058308;28;19921;-74
2023/07/03 08:53:03;;;;;;;;;;;;;;;22.37;41.83;100898.47;5048144;28;20007;-73
2023/07/03 08:55:30;;;;;;;;;;;;;;;22.27;42.16;100897.94;5061907;28;20290;-73
2023/07/03 08:57:55;;;;;;;;;;;;;;;22.22;42.40;100898.53;5045698;28;19917;-73
2023/07/03 09:00:21;;;;;;;;;;;;;;;22.23;42.35;100902.06;5049267;28;19927;-74
2023/07/03 09:02:52;;;;;;;;;;;;;;;22.18;42.20;100898.06;5062595;28;19943;-73
2023/07/03 09:05:36;;;;;;;;;;;;;;;22.18;42.06;100917.00;5057478;28;19932;-71
2023/07/03 09:08:02;;;;;;;;;;;;;;;22.13;42.04;100902.34;5069014;28;20012;-73
2023/07/03 09:10:38;;;;;;;;;;;;;;;22.12;40.92;100916.88;5046985;28;19921;-73
2023/07/03 09:13:11;;;;;;;;;;;;;;;22.17;41.34;100917.19;5041513;28;19920;-73
2023/07/03 09:15:55;;;;;;;;;;;;;;;22.23;41.63;100921.03;5043456;28;20391;-73
2023/07/03 09:18:22;;;;;;;;;;;;;;;22.28;41.43;100913.16;5054239;28;19921;-73
2023/07/03 09:20:47;;;;;;;;;;;;;;;22.33;41.63;100918.84;5054144;28;19925;-71
2023/07/03 09:23:16;;;;;;;;;;;;;;;22.38;42.13;100919.09;5039488;28;19913;-72
2023/07/03 09:25:51;;;;;;;;;;;;;;;22.40;42.04;100911.63;5059205;28;19917;-76
2023/07/03 09:28:17;;;;;;;;;;;;;;;22.41;42.34;100922.25;5046309;28;19921;-75
2023/07/03 09:30:42;;;;;;;;;;;;;;;22.44;42.42;100921.06;5066266;28;19923;-72
2023/07/03 09:33:07;;;;;;;;;;;;;;;22.45;42.61;100926.28;5055422;28;19912;-72
2023/07/03 09:35:36;;;;;;;;;;;;;;;22.46;42.81;100933.34;5067305;28;20005;-75
2023/07/03 09:38:02;;;;;;;;;;;;;;;22.40;40.55;100926.00;5060700;28;19921;-76
2023/07/03 09:40:35;;;;;;;;;;;;;;;22.25;39.80;100929.78;5062164;28;19920;-76
2023/07/03 09:43:00;;;;;;;;;;;;;;;22.19;40.38;100934.94;5060572;28;19913;-71
2023/07/03 09:45:33;;;;;;;;;;;;;;;22.22;40.81;100936.44;5052542;28;19917;-72
2023/07/03 09:47:59;;;;;;;;;;;;;;;22.27;41.02;100939.41;5050451;28;19917;-71
2023/07/03 09:50:29;;;;;;;;;;;;;;;22.31;41.04;100938.00;5056166;28;19920;-72
2023/07/03 09:52:57;;;;;;;;;;;;;;;22.35;41.47;100933.88;5046525;28;19966;-71
2023/07/03 09:55:23;;;;;;;;;;;;;;;22.39;41.58;100927.06;5051324;28;19920;-71
2023/07/03 09:57:48;;;;;;;;;;;;;;;22.42;41.90;100912.25;5049471;28;19919;-72
2023/07/03 10:00:18;;;;;;;;;;;;;;;22.44;41.96;100921.06;5045678;28;19924;-72
2023/07/03 10:02:44;;;;;;;;;;;;;;;22.46;41.98;100917.09;5048949;28;19983;-71
2023/07/03 10:05:12;;;;;;;;;;;;;;;22.49;42.43;100931.31;5061192;28;19950;-75
2023/07/03 10:07:41;;;;;;;;;;;;;;;22.50;42.34;100927.56;5066711;28;19927;-75
2023/07/03 10:10:07;;;;;;;;;;;;;;;22.51;42.11;100931.94;5070683;28;19913;-74
2023/07/03 10:12:34;;;;;;;;;;;;;;;22.53;42.58;100935.31;5036747;28;20431;-73
2023/07/03 10:15:29;;;;;;;;;;;;;;;22.52;42.56;100936.34;5057261;28;19966;-74
2023/07/03 10:17:56;;;;;;;;;;;;;;;22.53;42.30;100949.69;5043641;28;19928;-74
2023/07/03 10:20:28;;;;;;;;;;;;;;;22.54;42.63;100953.25;5062408;28;20008;-72
2023/07/03 10:22:54;;;;;;;;;;;;;;;22.54;42.63;100953.25;5043899;28;19955;-72
2023/07/03 10:25:24;;;;;;;;;;;;;;;22.54;42.69;100948.66;5047535;28;19916;-73
2023/07/03 10:27:51;;;;;;;;;;;;;;;22.55;42.46;100953.03;5044245;28;19971;-73
2023/07/03 10:30:18;;;;;;;;;;;;;;;22.56;42.63;100952.03;5033852;28;19916;-74
2023/07/03 10:32:43;;;;;;;;;;;;;;;22.56;42.75;100954.75;5059777;28;19924;-72
2023/07/03 10:35:18;;;;;;;;;;;;;;;22.58;42.94;100949.13;5054996;28;19924;-72
2023/07/03 10:38:10;;;;;;;;;;;;;;;22.60;43.05;100947.03;5065306;28;19984;-72
2023/07/03 10:40:44;;;;;;;;;;;;;;;22.60;43.04;100945.22;5059657;28;19920;-74
2023/07/03 10:43:10;;;;;;;;;;;;;;;22.61;43.21;100949.59;5069634;28;19913;-74
2023/07/03 10:45:36;;;;;;;;;;;;;;;22.62;43.25;100953.13;5041396;28;19917;-74
2023/07/03 10:48:22;;;;;;;;;;;;;;;22.62;43.47;100945.84;5047094;28;19917;-73
2023/07/03 10:51:12;;;;;;;;;;;;;;;22.64;43.44;100951.91;5060537;28;19967;-70
2023/07/03 10:53:40;;;;;;;;;;;;;;;22.66;43.48;100954.44;5062266;28;19924;-72
2023/07/03 10:56:05;;;;;;;;;;;;;;;22.65;43.63;100947.34;5066077;28;19943;-75
2023/07/03 10:58:51;;;;;;;;;;;;;;;22.66;43.76;100949.84;5068347;28;19917;-77
2023/07/03 11:01:33;;;;;;;;;;;;;;;22.65;43.63;100961.72;5030668;28;20015;-76
2023/07/03 11:03:58;;;;;;;;;;;;;;;22.66;44.00;100954.44;5071853;28;19913;-76
2023/07/03 11:06:39;;;;;;;;;;;;;;;22.67;44.15;100954.22;5056115;28;20004;-77
2023/07/03 11:09:12;;;;;;;;;;;;;;;22.63;44.48;100946.66;5053446;28;19912;-77
2023/07/03 11:11:40;;;;;;;;;;;;;;;22.55;44.10;100955.75;5043138;28;19920;-76
2023/07/03 11:14:12;;;;;;;;;;;;;;;22.54;44.65;100961.38;5044466;28;19920;-75
2023/07/03 11:16:46;;;;;;;;;;;;;;;22.57;44.46;100958.28;5047941;28;19944;-73
2023/07/03 11:19:21;;;;;;;;;;;;;;;22.58;44.34;100960.81;5061303;28;19921;-72
2023/07/03 11:21:53;;;;;;;;;;;;;;;22.61;44.64;100962.31;5064395;28;19916;-73
2023/07/03 11:24:19;;;;;;;;;;;;;;;22.62;44.98;100953.97;5067310;28;19917;-76
2023/07/03 11:27:03;;;;;;;;;;;;;;;22.64;44.99;100953.75;5060844;28;19913;-76
2023/07/03 11:29:29;;;;;;;;;;;;;;;22.65;45.23;100948.16;5064773;28;20637;-77
2023/07/03 11:31:54;;;;;;;;;;;;;;;22.66;45.37;100957.97;5049538;28;19925;-76
2023/07/03 11:34:19;;;;;;;;;;;;;;;22.60;44.68;100958.75;5039818;28;20302;-76
2023/07/03 11:36:46;;;;;;;;;;;;;;;22.57;44.37;100958.28;5056772;28;19921;-76
2023/07/03 11:39:26;;;;;;;;;;;;;;;22.52;44.26;100961.59;5057073;28;19996;-76
2023/07/03 11:41:53;;;;;;;;;;;;;;;22.48;44.14;100973.00;5071977;28;20003;-76
2023/07/03 11:44:37;;;;;;;;;;;;;;;22.40;44.18;100972.06;5048730;28;19917;-77
2023/07/03 11:47:06;;;;;;;;;;;;;;;22.32;44.16;100972.16;5066485;28;19924;-76
2023/07/03 11:49:32;;;;;;;;;;;;;;;22.28;44.36;100972.75;5064574;28;19913;-76
2023/07/03 11:51:58;;;;;;;;;;;;;;;22.29;44.08;100971.72;5047088;28;19920;-75
2023/07/03 11:54:24;;;;;;;;;;;;;;;22.33;44.64;100971.13;5042046;28;20424;-77
2023/07/03 11:56:53;;;;;;;;;;;;;;;22.38;45.19;100968.69;5050252;28;19924;-77
2023/07/03 11:59:23;;;;;;;;;;;;;;;22.37;44.87;100977.03;5066143;28;19917;-76
2023/07/03 12:01:48;;;;;;;;;;;;;;;22.31;44.18;100978.63;5056461;28;19960;-77
2023/07/03 12:04:14;;;;;;;;;;;;;;;22.28;44.25;100987.13;5073349;28;19920;-77
2023/07/03 12:06:39;;;;;;;;;;;;;;;22.30;44.38;100984.22;5056468;28;19947;-75
2023/07/03 12:09:23;;;;;;;;;;;;;;;22.28;44.12;100989.84;5068489;28;20418;-76
2023/07/03 12:12:02;;;;;;;;;;;;;;;22.27;43.68;100987.31;5056056;28;19916;-76
2023/07/03 12:14:40;;;;;;;;;;;;;;;22.23;42.92;100986.03;5062427;28;19920;-76
2023/07/03 12:17:18;;;;;;;;;;;;;;;22.16;43.23;100994.03;5065101;28;19924;-76
2023/07/03 12:19:43;;;;;;;;;;;;;;;22.12;43.38;100995.41;5063708;28;19924;-76
2023/07/03 12:22:11;;;;;;;;;;;;;;;22.07;43.07;100998.69;5057792;28;19921;-76
2023/07/03 12:24:36;;;;;;;;;;;;;;;22.02;43.19;100990.28;5050225;28;19956;-75
2023/07/03 12:27:03;;;;;;;;;;;;;;;21.99;43.34;100987.13;5063510;28;20030;-75
2023/07/03 12:29:29;;;;;;;;;;;;;;;21.96;43.52;100996.44;5063206;28;19923;-75
2023/07/03 12:32:05;;;;;;;;;;;;;;;21.99;43.69;100993.38;5070398;28;19944;-75
2023/07/03 12:34:31;;;;;;;;;;;;;;;21.99;43.82;100992.53;5051711;28;19917;-73
2023/07/03 12:37:03;;;;;;;;;;;;;;;21.99;43.83;100995.25;5069998;28;19916;-75